sensor_id;sensor_type;location;lat;lon;timestamp;P1;durP1;ratioP1;P2;durP2;ratioP2
10313;SDS011;5202;49.138;10.090;2023-09-30T00:03:23;9.00;;;3.78;;
10313;SDS011;5202;49.138;10.090;2023-09-30T00:05:53;11.85;;;3.83;;
10313;SDS011;5202;49.138;10.090;2023-09-30T00:08:31;9.40;;;4.65;;
10313;SDS011;5202;49.138;10.090;2023-09-30T00:11:00;9.48;;;4.00;;
10313;SDS011;5202;49.138;10.090;2023-09-30T00:13:29;7.40;;;3.70;;
10313;SDS011;5202;49.138;10.090;2023-09-30T00:15:58;8.88;;;4.22;;
10313;SDS011;5202;49.138;10.090;2023-09-30T00:18:26;9.70;;;3.72;;
10313;SDS011;5202;49.138;10.090;2023-09-30T00:20:56;6.45;;;3.53;;
10313;SDS011;5202;49.138;10.090;2023-09-30T00:23:25;8.80;;;3.47;;
10313;SDS011;5202;49.138;10.090;2023-09-30T00:25:53;8.38;;;3.38;;
10313;SDS011;5202;49.138;10.090;2023-09-30T00:28:22;6.47;;;3.00;;
10313;SDS011;5202;49.138;10.090;2023-09-30T00:30:51;7.55;;;3.42;;
10313;SDS011;5202;49.138;10.090;2023-09-30T00:33:20;6.40;;;3.28;;
10313;SDS011;5202;49.138;10.090;2023-09-30T00:35:49;6.78;;;2.90;;
10313;SDS011;5202;49.138;10.090;2023-09-30T00:38:19;7.43;;;3.33;;
10313;SDS011;5202;49.138;10.090;2023-09-30T00:40:50;6.00;;;3.20;;
10313;SDS011;5202;49.138;10.090;2023-09-30T00:43:19;6.63;;;3.15;;
10313;SDS011;5202;49.138;10.090;2023-09-30T00:45:48;8.25;;;3.72;;
10313;SDS011;5202;49.138;10.090;2023-09-30T00:48:19;4.75;;;2.40;;
10313;SDS011;5202;49.138;10.090;2023-09-30T00:50:48;8.27;;;3.35;;
10313;SDS011;5202;49.138;10.090;2023-09-30T00:53:16;5.43;;;2.70;;
10313;SDS011;5202;49.138;10.090;2023-09-30T00:55:46;8.15;;;2.72;;
10313;SDS011;5202;49.138;10.090;2023-09-30T00:58:15;8.98;;;3.17;;
10313;SDS011;5202;49.138;10.090;2023-09-30T01:00:44;7.68;;;3.38;;
10313;SDS011;5202;49.138;10.090;2023-09-30T01:03:13;5.63;;;2.80;;
10313;SDS011;5202;49.138;10.090;2023-09-30T01:05:42;5.38;;;2.88;;
10313;SDS011;5202;49.138;10.090;2023-09-30T01:08:10;7.75;;;2.80;;
10313;SDS011;5202;49.138;10.090;2023-09-30T01:10:40;5.72;;;2.58;;
10313;SDS011;5202;49.138;10.090;2023-09-30T01:13:09;4.35;;;2.25;;
10313;SDS011;5202;49.138;10.090;2023-09-30T01:15:37;6.13;;;2.75;;
10313;SDS011;5202;49.138;10.090;2023-09-30T01:18:06;5.20;;;3.13;;
10313;SDS011;5202;49.138;10.090;2023-09-30T01:20:34;6.00;;;3.22;;
10313;SDS011;5202;49.138;10.090;2023-09-30T01:23:04;5.88;;;2.92;;
10313;SDS011;5202;49.138;10.090;2023-09-30T01:25:34;7.10;;;3.50;;
10313;SDS011;5202;49.138;10.090;2023-09-30T01:28:07;7.93;;;3.90;;
10313;SDS011;5202;49.138;10.090;2023-09-30T01:30:36;5.18;;;2.95;;
10313;SDS011;5202;49.138;10.090;2023-09-30T01:33:05;6.00;;;3.05;;
10313;SDS011;5202;49.138;10.090;2023-09-30T01:35:34;6.15;;;3.40;;
10313;SDS011;5202;49.138;10.090;2023-09-30T01:38:05;7.10;;;3.35;;
10313;SDS011;5202;49.138;10.090;2023-09-30T01:40:34;6.45;;;3.47;;
10313;SDS011;5202;49.138;10.090;2023-09-30T01:43:03;5.32;;;3.60;;
10313;SDS011;5202;49.138;10.090;2023-09-30T01:45:32;7.40;;;3.70;;
10313;SDS011;5202;49.138;10.090;2023-09-30T01:48:02;6.40;;;3.30;;
10313;SDS011;5202;49.138;10.090;2023-09-30T01:50:31;6.70;;;3.40;;
10313;SDS011;5202;49.138;10.090;2023-09-30T01:52:59;5.10;;;3.25;;
10313;SDS011;5202;49.138;10.090;2023-09-30T01:55:29;7.03;;;3.65;;
10313;SDS011;5202;49.138;10.090;2023-09-30T01:57:57;6.55;;;3.38;;
10313;SDS011;5202;49.138;10.090;2023-09-30T02:00:26;7.15;;;3.85;;
10313;SDS011;5202;49.138;10.090;2023-09-30T02:02:55;4.47;;;3.70;;
10313;SDS011;5202;49.138;10.090;2023-09-30T02:05:24;7.65;;;4.30;;
10313;SDS011;5202;49.138;10.090;2023-09-30T02:07:55;5.18;;;3.92;;
10313;SDS011;5202;49.138;10.090;2023-09-30T02:10:24;6.20;;;3.97;;
10313;SDS011;5202;49.138;10.090;2023-09-30T02:12:53;6.38;;;4.30;;
10313;SDS011;5202;49.138;10.090;2023-09-30T02:15:23;8.93;;;5.28;;
10313;SDS011;5202;49.138;10.090;2023-09-30T02:17:51;5.95;;;3.72;;
10313;SDS011;5202;49.138;10.090;2023-09-30T02:20:20;4.50;;;3.40;;
10313;SDS011;5202;49.138;10.090;2023-09-30T02:22:52;7.32;;;3.30;;
10313;SDS011;5202;49.138;10.090;2023-09-30T02:25:21;5.38;;;2.90;;
10313;SDS011;5202;49.138;10.090;2023-09-30T02:27:49;5.55;;;2.95;;
10313;SDS011;5202;49.138;10.090;2023-09-30T02:30:19;5.32;;;3.42;;
10313;SDS011;5202;49.138;10.090;2023-09-30T02:32:48;6.20;;;3.33;;
10313;SDS011;5202;49.138;10.090;2023-09-30T02:35:17;6.57;;;3.00;;
10313;SDS011;5202;49.138;10.090;2023-09-30T02:37:47;6.95;;;3.25;;
10313;SDS011;5202;49.138;10.090;2023-09-30T02:40:16;4.18;;;2.65;;
10313;SDS011;5202;49.138;10.090;2023-09-30T02:42:44;4.00;;;3.15;;
10313;SDS011;5202;49.138;10.090;2023-09-30T02:45:15;4.38;;;2.92;;
10313;SDS011;5202;49.138;10.090;2023-09-30T02:47:45;6.38;;;3.55;;
10313;SDS011;5202;49.138;10.090;2023-09-30T02:50:14;8.02;;;3.65;;
10313;SDS011;5202;49.138;10.090;2023-09-30T02:52:42;5.28;;;3.45;;
10313;SDS011;5202;49.138;10.090;2023-09-30T02:55:11;6.60;;;3.35;;
10313;SDS011;5202;49.138;10.090;2023-09-30T02:57:42;5.03;;;3.47;;
10313;SDS011;5202;49.138;10.090;2023-09-30T03:00:10;7.22;;;3.92;;
10313;SDS011;5202;49.138;10.090;2023-09-30T03:02:53;5.80;;;3.58;;
10313;SDS011;5202;49.138;10.090;2023-09-30T03:05:23;5.47;;;3.72;;
10313;SDS011;5202;49.138;10.090;2023-09-30T03:07:52;7.00;;;3.92;;
10313;SDS011;5202;49.138;10.090;2023-09-30T03:10:21;7.82;;;4.15;;
10313;SDS011;5202;49.138;10.090;2023-09-30T03:12:50;5.57;;;3.67;;
10313;SDS011;5202;49.138;10.090;2023-09-30T03:15:19;6.78;;;4.32;;
10313;SDS011;5202;49.138;10.090;2023-09-30T03:17:48;5.95;;;3.67;;
10313;SDS011;5202;49.138;10.090;2023-09-30T03:20:20;8.80;;;4.28;;
10313;SDS011;5202;49.138;10.090;2023-09-30T03:22:51;6.20;;;4.37;;
10313;SDS011;5202;49.138;10.090;2023-09-30T03:25:20;7.50;;;4.40;;
10313;SDS011;5202;49.138;10.090;2023-09-30T03:27:49;7.60;;;4.53;;
10313;SDS011;5202;49.138;10.090;2023-09-30T03:30:17;6.57;;;4.57;;
10313;SDS011;5202;49.138;10.090;2023-09-30T03:32:47;6.95;;;4.47;;
10313;SDS011;5202;49.138;10.090;2023-09-30T03:35:16;8.48;;;4.72;;
10313;SDS011;5202;49.138;10.090;2023-09-30T03:37:46;8.03;;;4.80;;
10313;SDS011;5202;49.138;10.090;2023-09-30T03:40:15;7.85;;;5.07;;
10313;SDS011;5202;49.138;10.090;2023-09-30T03:42:47;7.40;;;4.82;;
10313;SDS011;5202;49.138;10.090;2023-09-30T03:45:17;7.37;;;4.50;;
10313;SDS011;5202;49.138;10.090;2023-09-30T03:47:46;6.83;;;5.20;;
10313;SDS011;5202;49.138;10.090;2023-09-30T03:50:16;8.60;;;4.75;;
10313;SDS011;5202;49.138;10.090;2023-09-30T03:52:44;9.73;;;5.13;;
10313;SDS011;5202;49.138;10.090;2023-09-30T03:55:15;9.70;;;5.07;;
10313;SDS011;5202;49.138;10.090;2023-09-30T03:57:47;7.40;;;5.70;;
10313;SDS011;5202;49.138;10.090;2023-09-30T04:00:18;6.88;;;4.78;;
10313;SDS011;5202;49.138;10.090;2023-09-30T04:02:47;7.55;;;5.13;;
10313;SDS011;5202;49.138;10.090;2023-09-30T04:05:18;6.73;;;4.90;;
10313;SDS011;5202;49.138;10.090;2023-09-30T04:07:52;9.60;;;4.88;;
10313;SDS011;5202;49.138;10.090;2023-09-30T04:10:20;9.73;;;4.32;;
10313;SDS011;5202;49.138;10.090;2023-09-30T04:12:49;11.80;;;5.07;;
10313;SDS011;5202;49.138;10.090;2023-09-30T04:15:18;8.10;;;4.35;;
10313;SDS011;5202;49.138;10.090;2023-09-30T04:17:47;6.75;;;4.43;;
10313;SDS011;5202;49.138;10.090;2023-09-30T04:20:16;6.90;;;3.93;;
10313;SDS011;5202;49.138;10.090;2023-09-30T04:22:48;8.53;;;3.83;;
10313;SDS011;5202;49.138;10.090;2023-09-30T04:25:18;13.70;;;4.50;;
10313;SDS011;5202;49.138;10.090;2023-09-30T04:27:47;9.70;;;3.95;;
10313;SDS011;5202;49.138;10.090;2023-09-30T04:30:16;8.40;;;3.70;;
10313;SDS011;5202;49.138;10.090;2023-09-30T04:32:45;5.28;;;3.85;;
10313;SDS011;5202;49.138;10.090;2023-09-30T04:35:13;5.75;;;3.22;;
10313;SDS011;5202;49.138;10.090;2023-09-30T04:37:42;7.40;;;3.33;;
10313;SDS011;5202;49.138;10.090;2023-09-30T04:40:10;7.97;;;3.45;;
10313;SDS011;5202;49.138;10.090;2023-09-30T04:42:44;8.18;;;3.83;;
10313;SDS011;5202;49.138;10.090;2023-09-30T04:45:13;7.55;;;3.65;;
10313;SDS011;5202;49.138;10.090;2023-09-30T04:47:43;5.63;;;3.67;;
10313;SDS011;5202;49.138;10.090;2023-09-30T04:50:12;8.77;;;3.15;;
10313;SDS011;5202;49.138;10.090;2023-09-30T04:52:43;4.72;;;3.25;;
10313;SDS011;5202;49.138;10.090;2023-09-30T04:55:12;8.38;;;3.55;;
10313;SDS011;5202;49.138;10.090;2023-09-30T04:57:44;9.55;;;3.55;;
10313;SDS011;5202;49.138;10.090;2023-09-30T05:00:15;8.70;;;3.90;;
10313;SDS011;5202;49.138;10.090;2023-09-30T05:02:45;6.38;;;3.53;;
10313;SDS011;5202;49.138;10.090;2023-09-30T05:05:14;4.68;;;3.40;;
10313;SDS011;5202;49.138;10.090;2023-09-30T05:07:43;8.82;;;3.67;;
10313;SDS011;5202;49.138;10.090;2023-09-30T05:10:13;8.85;;;3.45;;
10313;SDS011;5202;49.138;10.090;2023-09-30T05:12:42;6.70;;;3.50;;
10313;SDS011;5202;49.138;10.090;2023-09-30T05:15:14;4.32;;;3.10;;
10313;SDS011;5202;49.138;10.090;2023-09-30T05:17:44;7.13;;;3.60;;
10313;SDS011;5202;49.138;10.090;2023-09-30T05:20:13;4.93;;;3.38;;
10313;SDS011;5202;49.138;10.090;2023-09-30T05:22:44;6.90;;;3.50;;
10313;SDS011;5202;49.138;10.090;2023-09-30T05:25:13;11.02;;;3.70;;
10313;SDS011;5202;49.138;10.090;2023-09-30T05:27:45;7.80;;;3.58;;
10313;SDS011;5202;49.138;10.090;2023-09-30T05:30:15;6.60;;;3.40;;
10313;SDS011;5202;49.138;10.090;2023-09-30T05:32:46;9.52;;;3.60;;
10313;SDS011;5202;49.138;10.090;2023-09-30T05:35:15;8.20;;;3.17;;
10313;SDS011;5202;49.138;10.090;2023-09-30T05:37:44;9.07;;;3.75;;
10313;SDS011;5202;49.138;10.090;2023-09-30T05:40:13;4.55;;;3.13;;
10313;SDS011;5202;49.138;10.090;2023-09-30T05:42:51;6.57;;;3.60;;
10313;SDS011;5202;49.138;10.090;2023-09-30T05:45:22;6.07;;;3.42;;
10313;SDS011;5202;49.138;10.090;2023-09-30T05:47:53;5.82;;;3.30;;
10313;SDS011;5202;49.138;10.090;2023-09-30T05:50:23;5.90;;;3.80;;
10313;SDS011;5202;49.138;10.090;2023-09-30T05:52:54;4.32;;;3.25;;
10313;SDS011;5202;49.138;10.090;2023-09-30T05:55:23;7.57;;;3.65;;
10313;SDS011;5202;49.138;10.090;2023-09-30T05:57:54;5.63;;;3.30;;
10313;SDS011;5202;49.138;10.090;2023-09-30T06:00:23;5.70;;;3.92;;
10313;SDS011;5202;49.138;10.090;2023-09-30T06:02:56;6.30;;;3.80;;
10313;SDS011;5202;49.138;10.090;2023-09-30T06:05:27;6.20;;;3.22;;
10313;SDS011;5202;49.138;10.090;2023-09-30T06:07:58;6.13;;;3.20;;
10313;SDS011;5202;49.138;10.090;2023-09-30T06:10:29;6.95;;;3.50;;
10313;SDS011;5202;49.138;10.090;2023-09-30T06:12:59;4.72;;;2.90;;
10313;SDS011;5202;49.138;10.090;2023-09-30T06:15:28;6.30;;;3.53;;
10313;SDS011;5202;49.138;10.090;2023-09-30T06:17:58;7.05;;;3.72;;
10313;SDS011;5202;49.138;10.090;2023-09-30T06:20:27;8.05;;;3.22;;
10313;SDS011;5202;49.138;10.090;2023-09-30T06:22:57;6.25;;;3.35;;
10313;SDS011;5202;49.138;10.090;2023-09-30T06:25:27;5.85;;;3.53;;
10313;SDS011;5202;49.138;10.090;2023-09-30T06:27:57;7.45;;;3.58;;
10313;SDS011;5202;49.138;10.090;2023-09-30T06:30:26;7.90;;;3.55;;
10313;SDS011;5202;49.138;10.090;2023-09-30T06:32:58;5.97;;;3.38;;
10313;SDS011;5202;49.138;10.090;2023-09-30T06:35:28;7.20;;;3.67;;
10313;SDS011;5202;49.138;10.090;2023-09-30T06:38:01;6.65;;;3.33;;
10313;SDS011;5202;49.138;10.090;2023-09-30T06:40:30;8.00;;;3.88;;
10313;SDS011;5202;49.138;10.090;2023-09-30T06:42:58;5.72;;;3.75;;
10313;SDS011;5202;49.138;10.090;2023-09-30T06:45:29;6.50;;;3.60;;
10313;SDS011;5202;49.138;10.090;2023-09-30T06:47:59;5.63;;;3.33;;
10313;SDS011;5202;49.138;10.090;2023-09-30T06:50:28;10.35;;;3.88;;
10313;SDS011;5202;49.138;10.090;2023-09-30T06:52:58;7.93;;;4.00;;
10313;SDS011;5202;49.138;10.090;2023-09-30T06:55:26;6.18;;;3.63;;
10313;SDS011;5202;49.138;10.090;2023-09-30T06:57:57;5.15;;;3.67;;
10313;SDS011;5202;49.138;10.090;2023-09-30T07:00:28;8.07;;;4.25;;
10313;SDS011;5202;49.138;10.090;2023-09-30T07:02:57;7.90;;;3.83;;
10313;SDS011;5202;49.138;10.090;2023-09-30T07:05:27;8.13;;;5.40;;
10313;SDS011;5202;49.138;10.090;2023-09-30T07:07:56;11.52;;;6.18;;
10313;SDS011;5202;49.138;10.090;2023-09-30T07:10:25;8.15;;;5.18;;
10313;SDS011;5202;49.138;10.090;2023-09-30T07:12:55;6.60;;;4.68;;
10313;SDS011;5202;49.138;10.090;2023-09-30T07:15:24;8.20;;;5.22;;
10313;SDS011;5202;49.138;10.090;2023-09-30T07:17:54;12.32;;;5.82;;
10313;SDS011;5202;49.138;10.090;2023-09-30T07:20:22;9.52;;;5.75;;
10313;SDS011;5202;49.138;10.090;2023-09-30T07:22:51;11.35;;;6.25;;
10313;SDS011;5202;49.138;10.090;2023-09-30T07:25:37;12.23;;;7.18;;
10313;SDS011;5202;49.138;10.090;2023-09-30T07:28:05;9.90;;;7.05;;
10313;SDS011;5202;49.138;10.090;2023-09-30T07:30:38;14.38;;;7.60;;
10313;SDS011;5202;49.138;10.090;2023-09-30T07:33:09;12.30;;;6.90;;
10313;SDS011;5202;49.138;10.090;2023-09-30T07:35:37;10.45;;;6.68;;
10313;SDS011;5202;49.138;10.090;2023-09-30T07:38:06;9.73;;;7.05;;
10313;SDS011;5202;49.138;10.090;2023-09-30T07:40:34;12.65;;;8.13;;
10313;SDS011;5202;49.138;10.090;2023-09-30T07:43:03;8.90;;;6.85;;
10313;SDS011;5202;49.138;10.090;2023-09-30T07:45:31;11.70;;;7.20;;
10313;SDS011;5202;49.138;10.090;2023-09-30T07:48:00;10.82;;;7.25;;
10313;SDS011;5202;49.138;10.090;2023-09-30T07:50:32;11.25;;;7.18;;
10313;SDS011;5202;49.138;10.090;2023-09-30T07:53:01;12.07;;;6.65;;
10313;SDS011;5202;49.138;10.090;2023-09-30T07:55:30;16.55;;;7.75;;
10313;SDS011;5202;49.138;10.090;2023-09-30T07:57:58;10.18;;;7.18;;
10313;SDS011;5202;49.138;10.090;2023-09-30T08:00:27;8.63;;;6.38;;
10313;SDS011;5202;49.138;10.090;2023-09-30T08:02:56;9.98;;;5.30;;
10313;SDS011;5202;49.138;10.090;2023-09-30T08:05:27;8.30;;;5.70;;
10313;SDS011;5202;49.138;10.090;2023-09-30T08:07:56;9.27;;;5.88;;
10313;SDS011;5202;49.138;10.090;2023-09-30T08:10:25;10.85;;;6.28;;
10313;SDS011;5202;49.138;10.090;2023-09-30T08:12:53;12.25;;;6.05;;
10313;SDS011;5202;49.138;10.090;2023-09-30T08:15:24;10.63;;;6.38;;
10313;SDS011;5202;49.138;10.090;2023-09-30T08:17:53;9.90;;;6.13;;
10313;SDS011;5202;49.138;10.090;2023-09-30T08:20:21;8.80;;;6.00;;
10313;SDS011;5202;49.138;10.090;2023-09-30T08:22:50;8.85;;;5.57;;
10313;SDS011;5202;49.138;10.090;2023-09-30T08:25:19;10.30;;;6.50;;
10313;SDS011;5202;49.138;10.090;2023-09-30T08:27:48;13.07;;;5.75;;
10313;SDS011;5202;49.138;10.090;2023-09-30T08:30:17;10.75;;;5.78;;
10313;SDS011;5202;49.138;10.090;2023-09-30T08:32:45;10.48;;;5.95;;
10313;SDS011;5202;49.138;10.090;2023-09-30T08:35:14;11.50;;;5.22;;
10313;SDS011;5202;49.138;10.090;2023-09-30T08:37:42;10.25;;;5.82;;
10313;SDS011;5202;49.138;10.090;2023-09-30T08:40:10;10.80;;;5.50;;
10313;SDS011;5202;49.138;10.090;2023-09-30T08:42:40;8.95;;;5.72;;
10313;SDS011;5202;49.138;10.090;2023-09-30T08:45:10;10.10;;;5.53;;
10313;SDS011;5202;49.138;10.090;2023-09-30T08:47:41;9.40;;;5.80;;
10313;SDS011;5202;49.138;10.090;2023-09-30T08:50:10;10.63;;;5.78;;
10313;SDS011;5202;49.138;10.090;2023-09-30T08:52:41;11.50;;;6.32;;
10313;SDS011;5202;49.138;10.090;2023-09-30T08:55:11;8.25;;;5.35;;
10313;SDS011;5202;49.138;10.090;2023-09-30T08:57:41;10.60;;;6.18;;
10313;SDS011;5202;49.138;10.090;2023-09-30T09:00:11;11.75;;;6.45;;
10313;SDS011;5202;49.138;10.090;2023-09-30T09:02:41;11.55;;;6.22;;
10313;SDS011;5202;49.138;10.090;2023-09-30T09:05:10;10.13;;;6.63;;
10313;SDS011;5202;49.138;10.090;2023-09-30T09:07:38;12.73;;;6.45;;
10313;SDS011;5202;49.138;10.090;2023-09-30T09:10:10;13.30;;;6.45;;
10313;SDS011;5202;49.138;10.090;2023-09-30T09:12:42;10.50;;;5.78;;
10313;SDS011;5202;49.138;10.090;2023-09-30T09:17:57;8.40;;;5.95;;
10313;SDS011;5202;49.138;10.090;2023-09-30T09:20:26;11.45;;;6.35;;
10313;SDS011;5202;49.138;10.090;2023-09-30T09:22:55;8.70;;;5.28;;
10313;SDS011;5202;49.138;10.090;2023-09-30T09:25:26;8.85;;;4.60;;
10313;SDS011;5202;49.138;10.090;2023-09-30T09:27:56;10.48;;;5.70;;
10313;SDS011;5202;49.138;10.090;2023-09-30T09:30:26;11.98;;;5.68;;
10313;SDS011;5202;49.138;10.090;2023-09-30T09:32:58;9.90;;;5.32;;
10313;SDS011;5202;49.138;10.090;2023-09-30T09:35:29;9.73;;;5.57;;
10313;SDS011;5202;49.138;10.090;2023-09-30T09:38:00;8.18;;;5.13;;
10313;SDS011;5202;49.138;10.090;2023-09-30T09:40:31;9.02;;;4.97;;
10313;SDS011;5202;49.138;10.090;2023-09-30T09:43:03;8.05;;;4.85;;
10313;SDS011;5202;49.138;10.090;2023-09-30T09:45:33;8.88;;;4.68;;
10313;SDS011;5202;49.138;10.090;2023-09-30T09:48:05;9.70;;;5.30;;
10313;SDS011;5202;49.138;10.090;2023-09-30T09:50:34;8.55;;;4.75;;
10313;SDS011;5202;49.138;10.090;2023-09-30T09:53:05;8.98;;;4.28;;
10313;SDS011;5202;49.138;10.090;2023-09-30T09:55:33;9.23;;;4.25;;
10313;SDS011;5202;49.138;10.090;2023-09-30T09:58:07;6.13;;;4.10;;
10313;SDS011;5202;49.138;10.090;2023-09-30T10:00:37;8.10;;;4.03;;
10313;SDS011;5202;49.138;10.090;2023-09-30T10:03:07;10.45;;;4.90;;
10313;SDS011;5202;49.138;10.090;2023-09-30T10:05:36;8.07;;;4.07;;
10313;SDS011;5202;49.138;10.090;2023-09-30T10:08:08;8.35;;;4.43;;
10313;SDS011;5202;49.138;10.090;2023-09-30T10:10:40;7.47;;;4.82;;
10313;SDS011;5202;49.138;10.090;2023-09-30T10:13:12;9.98;;;5.53;;
10313;SDS011;5202;49.138;10.090;2023-09-30T10:19:18;8.23;;;5.15;;
10313;SDS011;5202;49.138;10.090;2023-09-30T10:24:52;8.05;;;4.20;;
10313;SDS011;5202;49.138;10.090;2023-09-30T10:27:32;9.27;;;4.72;;
10313;SDS011;5202;49.138;10.090;2023-09-30T10:30:09;6.80;;;4.05;;
10313;SDS011;5202;49.138;10.090;2023-09-30T10:35:46;6.47;;;4.15;;
10313;SDS011;5202;49.138;10.090;2023-09-30T10:41:09;8.18;;;4.60;;
10313;SDS011;5202;49.138;10.090;2023-09-30T10:43:39;7.18;;;4.72;;
10313;SDS011;5202;49.138;10.090;2023-09-30T10:52:02;7.15;;;4.15;;
10313;SDS011;5202;49.138;10.090;2023-09-30T10:54:31;8.07;;;4.68;;
10313;SDS011;5202;49.138;10.090;2023-09-30T10:57:00;8.27;;;4.47;;
10313;SDS011;5202;49.138;10.090;2023-09-30T10:59:31;8.07;;;4.22;;
10313;SDS011;5202;49.138;10.090;2023-09-30T11:02:03;8.00;;;4.32;;
10313;SDS011;5202;49.138;10.090;2023-09-30T11:04:46;10.30;;;4.65;;
10313;SDS011;5202;49.138;10.090;2023-09-30T11:07:18;10.38;;;4.40;;
10313;SDS011;5202;49.138;10.090;2023-09-30T11:09:51;10.13;;;4.93;;
10313;SDS011;5202;49.138;10.090;2023-09-30T11:12:21;8.55;;;4.50;;
10313;SDS011;5202;49.138;10.090;2023-09-30T11:14:58;7.82;;;4.60;;
10313;SDS011;5202;49.138;10.090;2023-09-30T11:17:34;7.68;;;4.50;;
10313;SDS011;5202;49.138;10.090;2023-09-30T11:20:05;10.68;;;4.65;;
10313;SDS011;5202;49.138;10.090;2023-09-30T11:22:36;9.32;;;4.38;;
10313;SDS011;5202;49.138;10.090;2023-09-30T11:25:06;10.07;;;4.45;;
10313;SDS011;5202;49.138;10.090;2023-09-30T11:27:43;9.45;;;4.60;;
10313;SDS011;5202;49.138;10.090;2023-09-30T11:30:12;8.00;;;4.32;;
10313;SDS011;5202;49.138;10.090;2023-09-30T11:32:43;8.98;;;4.95;;
10313;SDS011;5202;49.138;10.090;2023-09-30T11:35:21;10.10;;;4.28;;
10313;SDS011;5202;49.138;10.090;2023-09-30T11:37:50;10.85;;;4.82;;
10313;SDS011;5202;49.138;10.090;2023-09-30T11:40:19;9.15;;;4.85;;
10313;SDS011;5202;49.138;10.090;2023-09-30T11:43:08;10.73;;;4.90;;
10313;SDS011;5202;49.138;10.090;2023-09-30T11:45:38;10.20;;;4.80;;
10313;SDS011;5202;49.138;10.090;2023-09-30T11:48:17;7.55;;;4.55;;
10313;SDS011;5202;49.138;10.090;2023-09-30T11:50:47;7.93;;;4.53;;
10313;SDS011;5202;49.138;10.090;2023-09-30T11:53:16;7.43;;;4.22;;
10313;SDS011;5202;49.138;10.090;2023-09-30T11:55:47;7.82;;;4.45;;
10313;SDS011;5202;49.138;10.090;2023-09-30T11:58:15;10.25;;;4.68;;
10313;SDS011;5202;49.138;10.090;2023-09-30T12:00:46;10.10;;;5.05;;
10313;SDS011;5202;49.138;10.090;2023-09-30T12:03:18;9.95;;;5.00;;
10313;SDS011;5202;49.138;10.090;2023-09-30T12:05:48;10.60;;;5.15;;
10313;SDS011;5202;49.138;10.090;2023-09-30T12:08:17;9.93;;;5.03;;
10313;SDS011;5202;49.138;10.090;2023-09-30T12:10:45;9.57;;;5.30;;
10313;SDS011;5202;49.138;10.090;2023-09-30T12:13:14;11.57;;;5.00;;
10313;SDS011;5202;49.138;10.090;2023-09-30T12:15:42;7.38;;;4.63;;
10313;SDS011;5202;49.138;10.090;2023-09-30T12:18:11;10.05;;;4.82;;
10313;SDS011;5202;49.138;10.090;2023-09-30T12:20:44;10.18;;;5.10;;
10313;SDS011;5202;49.138;10.090;2023-09-30T12:23:13;10.52;;;5.20;;
10313;SDS011;5202;49.138;10.090;2023-09-30T12:25:42;9.60;;;4.82;;
10313;SDS011;5202;49.138;10.090;2023-09-30T12:28:16;9.45;;;5.28;;
10313;SDS011;5202;49.138;10.090;2023-09-30T12:30:44;9.48;;;4.80;;
10313;SDS011;5202;49.138;10.090;2023-09-30T12:33:14;9.13;;;4.82;;
10313;SDS011;5202;49.138;10.090;2023-09-30T12:35:42;9.07;;;4.47;;
10313;SDS011;5202;49.138;10.090;2023-09-30T12:38:12;12.70;;;5.88;;
10313;SDS011;5202;49.138;10.090;2023-09-30T12:40:42;9.32;;;4.90;;
10313;SDS011;5202;49.138;10.090;2023-09-30T12:43:11;10.65;;;5.85;;
10313;SDS011;5202;49.138;10.090;2023-09-30T12:45:39;10.20;;;5.30;;
10313;SDS011;5202;49.138;10.090;2023-09-30T12:48:07;9.30;;;5.00;;
10313;SDS011;5202;49.138;10.090;2023-09-30T12:50:36;10.23;;;5.28;;
10313;SDS011;5202;49.138;10.090;2023-09-30T12:53:06;11.75;;;5.40;;
10313;SDS011;5202;49.138;10.090;2023-09-30T12:55:34;10.13;;;5.07;;
10313;SDS011;5202;49.138;10.090;2023-09-30T12:58:03;9.30;;;5.10;;
10313;SDS011;5202;49.138;10.090;2023-09-30T13:00:31;10.20;;;4.80;;
10313;SDS011;5202;49.138;10.090;2023-09-30T13:03:00;8.70;;;4.68;;
10313;SDS011;5202;49.138;10.090;2023-09-30T13:05:29;10.68;;;5.32;;
10313;SDS011;5202;49.138;10.090;2023-09-30T13:07:57;10.93;;;5.40;;
10313;SDS011;5202;49.138;10.090;2023-09-30T13:10:27;9.50;;;4.65;;
10313;SDS011;5202;49.138;10.090;2023-09-30T13:12:57;8.95;;;4.50;;
10313;SDS011;5202;49.138;10.090;2023-09-30T13:15:25;10.00;;;4.88;;
10313;SDS011;5202;49.138;10.090;2023-09-30T13:17:54;10.15;;;4.82;;
10313;SDS011;5202;49.138;10.090;2023-09-30T13:20:22;7.35;;;4.32;;
10313;SDS011;5202;49.138;10.090;2023-09-30T13:22:51;9.65;;;4.55;;
10313;SDS011;5202;49.138;10.090;2023-09-30T13:25:20;8.82;;;4.68;;
10313;SDS011;5202;49.138;10.090;2023-09-30T13:27:50;10.10;;;4.55;;
10313;SDS011;5202;49.138;10.090;2023-09-30T13:30:18;12.73;;;5.60;;
10313;SDS011;5202;49.138;10.090;2023-09-30T13:32:48;8.52;;;4.53;;
10313;SDS011;5202;49.138;10.090;2023-09-30T13:35:16;9.65;;;4.90;;
10313;SDS011;5202;49.138;10.090;2023-09-30T13:37:45;8.30;;;4.50;;
10313;SDS011;5202;49.138;10.090;2023-09-30T13:40:13;9.18;;;4.45;;
10313;SDS011;5202;49.138;10.090;2023-09-30T13:42:43;15.00;;;5.88;;
10313;SDS011;5202;49.138;10.090;2023-09-30T13:45:14;9.55;;;4.55;;
10313;SDS011;5202;49.138;10.090;2023-09-30T13:47:43;9.60;;;4.57;;
10313;SDS011;5202;49.138;10.090;2023-09-30T13:50:12;8.20;;;4.75;;
10313;SDS011;5202;49.138;10.090;2023-09-30T13:52:41;10.27;;;4.82;;
10313;SDS011;5202;49.138;10.090;2023-09-30T13:55:09;10.57;;;5.15;;
10313;SDS011;5202;49.138;10.090;2023-09-30T13:57:38;12.48;;;5.00;;
10313;SDS011;5202;49.138;10.090;2023-09-30T14:00:08;9.82;;;4.82;;
10313;SDS011;5202;49.138;10.090;2023-09-30T14:02:39;12.52;;;5.20;;
10313;SDS011;5202;49.138;10.090;2023-09-30T14:05:15;10.18;;;5.18;;
10313;SDS011;5202;49.138;10.090;2023-09-30T14:07:46;9.70;;;5.13;;
10313;SDS011;5202;49.138;10.090;2023-09-30T14:10:15;10.82;;;5.22;;
10313;SDS011;5202;49.138;10.090;2023-09-30T14:12:45;10.25;;;5.00;;
10313;SDS011;5202;49.138;10.090;2023-09-30T14:15:13;11.20;;;5.18;;
10313;SDS011;5202;49.138;10.090;2023-09-30T14:17:43;11.23;;;5.85;;
10313;SDS011;5202;49.138;10.090;2023-09-30T14:20:12;10.40;;;4.75;;
10313;SDS011;5202;49.138;10.090;2023-09-30T14:22:41;10.88;;;5.35;;
10313;SDS011;5202;49.138;10.090;2023-09-30T14:25:09;13.43;;;5.75;;
10313;SDS011;5202;49.138;10.090;2023-09-30T14:27:38;9.85;;;5.05;;
10313;SDS011;5202;49.138;10.090;2023-09-30T14:30:07;13.00;;;5.72;;
10313;SDS011;5202;49.138;10.090;2023-09-30T14:32:36;11.50;;;5.28;;
10313;SDS011;5202;49.138;10.090;2023-09-30T14:35:06;11.10;;;5.32;;
10313;SDS011;5202;49.138;10.090;2023-09-30T14:37:36;10.55;;;5.32;;
10313;SDS011;5202;49.138;10.090;2023-09-30T14:40:04;9.55;;;5.40;;
10313;SDS011;5202;49.138;10.090;2023-09-30T14:42:37;8.48;;;4.97;;
10313;SDS011;5202;49.138;10.090;2023-09-30T14:45:06;11.90;;;5.63;;
10313;SDS011;5202;49.138;10.090;2023-09-30T14:47:36;11.77;;;5.75;;
10313;SDS011;5202;49.138;10.090;2023-09-30T14:50:07;8.63;;;5.13;;
10313;SDS011;5202;49.138;10.090;2023-09-30T14:52:40;10.57;;;5.30;;
10313;SDS011;5202;49.138;10.090;2023-09-30T14:55:09;10.43;;;5.68;;
10313;SDS011;5202;49.138;10.090;2023-09-30T14:57:38;9.23;;;5.03;;
10313;SDS011;5202;49.138;10.090;2023-09-30T15:00:06;11.43;;;6.18;;
10313;SDS011;5202;49.138;10.090;2023-09-30T15:02:37;12.02;;;5.82;;
10313;SDS011;5202;49.138;10.090;2023-09-30T15:05:08;11.10;;;5.55;;
10313;SDS011;5202;49.138;10.090;2023-09-30T15:07:36;9.98;;;5.18;;
10313;SDS011;5202;49.138;10.090;2023-09-30T15:10:05;11.23;;;6.05;;
10313;SDS011;5202;49.138;10.090;2023-09-30T15:12:36;10.43;;;5.45;;
10313;SDS011;5202;49.138;10.090;2023-09-30T15:15:05;10.18;;;5.70;;
10313;SDS011;5202;49.138;10.090;2023-09-30T15:17:35;13.43;;;5.70;;
10313;SDS011;5202;49.138;10.090;2023-09-30T15:20:04;8.88;;;5.03;;
10313;SDS011;5202;49.138;10.090;2023-09-30T15:22:36;10.40;;;5.38;;